sensor_id;sensor_type;location;lat;lon;timestamp;pressure;altitude;pressure_sealevel;temperature;humidity
51229;BME280;37304;52.216;6.874;2023-05-31T00:00:31;102365.66;;;11.04;100.00
51229;BME280;37304;52.216;6.874;2023-05-31T00:07:29;102363.00;;;10.95;100.00
51229;BME280;37304;52.216;6.874;2023-05-31T00:12:38;102368.13;;;10.87;100.00
51229;BME280;37304;52.216;6.874;2023-05-31T00:17:50;102368.97;;;10.85;100.00
51229;BME280;37304;52.216;6.874;2023-05-31T00:23:05;102365.47;;;10.78;100.00
51229;BME280;37304;52.216;6.874;2023-05-31T00:28:14;102364.56;;;10.74;100.00
51229;BME280;37304;52.216;6.874;2023-05-31T00:33:17;102368.03;;;10.76;100.00
51229;BME280;37304;52.216;6.874;2023-05-31T00:38:17;102371.44;;;10.66;100.00
51229;BME280;37304;52.216;6.874;2023-05-31T00:43:18;102370.56;;;10.64;100.00
51229;BME280;37304;52.216;6.874;2023-05-31T00:48:18;102367.09;;;10.60;100.00
51229;BME280;37304;52.216;6.874;2023-05-31T00:53:19;102373.03;;;10.50;100.00
51229;BME280;37304;52.216;6.874;2023-05-31T00:58:22;102375.63;;;10.50;100.00
51229;BME280;37304;52.216;6.874;2023-05-31T01:03:23;102378.13;;;10.39;100.00
51229;BME280;37304;52.216;6.874;2023-05-31T01:08:23;102381.66;;;10.43;100.00
51229;BME280;37304;52.216;6.874;2023-05-31T01:18:36;102384.09;;;10.29;100.00
51229;BME280;37304;52.216;6.874;2023-05-31T01:24:07;102390.13;;;10.26;100.00
51229;BME280;37304;52.216;6.874;2023-05-31T01:29:16;102395.28;;;10.25;100.00
51229;BME280;37304;52.216;6.874;2023-05-31T01:34:18;102393.56;;;10.22;100.00
51229;BME280;37304;52.216;6.874;2023-05-31T01:39:19;102395.19;;;10.12;100.00
51229;BME280;37304;52.216;6.874;2023-05-31T01:44:22;102397.78;;;10.11;100.00
51229;BME280;37304;52.216;6.874;2023-05-31T01:49:23;102396.88;;;10.09;100.00
51229;BME280;37304;52.216;6.874;2023-05-31T01:54:24;102396.84;;;10.02;100.00
51229;BME280;37304;52.216;6.874;2023-05-31T01:59:25;102398.53;;;10.02;100.00
51229;BME280;37304;52.216;6.874;2023-05-31T02:04:27;102393.31;;;9.97;100.00
51229;BME280;37304;52.216;6.874;2023-05-31T02:09:28;102390.66;;;9.93;100.00
51229;BME280;37304;52.216;6.874;2023-05-31T02:14:28;102387.19;;;9.94;100.00
51229;BME280;37304;52.216;6.874;2023-05-31T02:19:29;102392.38;;;9.90;100.00
51229;BME280;37304;52.216;6.874;2023-05-31T02:24:52;102394.84;;;9.81;100.00
51229;BME280;37304;52.216;6.874;2023-05-31T02:29:53;102395.72;;;9.80;100.00
51229;BME280;37304;52.216;6.874;2023-05-31T02:34:53;102381.88;;;9.83;100.00
51229;BME280;37304;52.216;6.874;2023-05-31T02:39:54;102387.00;;;9.75;100.00
51229;BME280;37304;52.216;6.874;2023-05-31T02:44:55;102392.13;;;9.70;100.00
51229;BME280;37304;52.216;6.874;2023-05-31T02:49:55;102383.47;;;9.71;100.00
51229;BME280;37304;52.216;6.874;2023-05-31T02:54:56;102375.66;;;9.67;100.00
51229;BME280;37304;52.216;6.874;2023-05-31T03:00:00;102377.41;;;9.68;100.00
51229;BME280;37304;52.216;6.874;2023-05-31T03:05:08;102370.44;;;9.64;100.00
51229;BME280;37304;52.216;6.874;2023-05-31T03:10:09;102378.13;;;9.56;100.00
51229;BME280;37304;52.216;6.874;2023-05-31T03:15:10;102373.75;;;9.53;100.00
51229;BME280;37304;52.216;6.874;2023-05-31T03:20:11;102375.47;;;9.54;100.00
51229;BME280;37304;52.216;6.874;2023-05-31T03:25:14;102379.75;;;9.47;100.00
51229;BME280;37304;52.216;6.874;2023-05-31T03:30:14;102383.13;;;9.42;100.00
51229;BME280;37304;52.216;6.874;2023-05-31T03:35:15;102387.44;;;9.41;100.00
51229;BME280;37304;52.216;6.874;2023-05-31T03:40:15;102390.91;;;9.42;100.00
51229;BME280;37304;52.216;6.874;2023-05-31T03:45:16;102388.34;;;9.43;100.00
51229;BME280;37304;52.216;6.874;2023-05-31T03:50:16;102398.72;;;9.43;100.00
51229;BME280;37304;52.216;6.874;2023-05-31T03:55:16;102398.81;;;9.50;100.00
51229;BME280;37304;52.216;6.874;2023-05-31T04:00:17;102399.66;;;9.50;100.00
51229;BME280;37304;52.216;6.874;2023-05-31T04:05:18;102395.34;;;9.51;100.00
51229;BME280;37304;52.216;6.874;2023-05-31T04:10:18;102394.53;;;9.56;100.00
51229;BME280;37304;52.216;6.874;2023-05-31T04:15:19;102397.19;;;9.58;100.00
51229;BME280;37304;52.216;6.874;2023-05-31T04:20:19;102407.69;;;9.69;100.00
51229;BME280;37304;52.216;6.874;2023-05-31T04:25:20;102399.88;;;9.67;100.00
51229;BME280;37304;52.216;6.874;2023-05-31T04:30:21;102413.84;;;9.77;100.00
51229;BME280;37304;52.216;6.874;2023-05-31T04:35:23;102403.53;;;9.83;100.00
51229;BME280;37304;52.216;6.874;2023-05-31T04:40:24;102393.25;;;9.93;100.00
51229;BME280;37304;52.216;6.874;2023-05-31T04:45:24;102385.63;;;10.08;100.00
51229;BME280;37304;52.216;6.874;2023-05-31T04:50:30;102388.22;;;10.08;100.00
51229;BME280;37304;52.216;6.874;2023-05-31T04:55:31;102386.66;;;10.24;100.00
51229;BME280;37304;52.216;6.874;2023-05-31T05:00:35;102390.22;;;10.34;100.00
51229;BME280;37304;52.216;6.874;2023-05-31T05:05:38;102388.47;;;10.33;100.00
51229;BME280;37304;52.216;6.874;2023-05-31T05:10:38;102388.63;;;10.48;100.00
51229;BME280;37304;52.216;6.874;2023-05-31T05:15:39;102393.84;;;10.50;100.00
51229;BME280;37304;52.216;6.874;2023-05-31T05:20:39;102392.31;;;10.74;100.00
51229;BME280;37304;52.216;6.874;2023-05-31T05:25:41;102390.69;;;10.93;100.00
51229;BME280;37304;52.216;6.874;2023-05-31T05:30:41;102397.69;;;10.99;100.00
51229;BME280;37304;52.216;6.874;2023-05-31T05:35:41;102390.78;;;11.07;100.00
51229;BME280;37304;52.216;6.874;2023-05-31T05:40:42;102383.09;;;11.26;100.00
51229;BME280;37304;52.216;6.874;2023-05-31T05:45:42;102382.28;;;11.38;100.00
51229;BME280;37304;52.216;6.874;2023-05-31T05:50:43;102384.94;;;11.48;100.00
51229;BME280;37304;52.216;6.874;2023-05-31T05:55:53;102372.81;;;11.55;100.00
51229;BME280;37304;52.216;6.874;2023-05-31T06:00:56;102376.38;;;11.73;100.00
51229;BME280;37304;52.216;6.874;2023-05-31T06:05:57;102368.56;;;11.90;100.00
51229;BME280;37304;52.216;6.874;2023-05-31T06:10:57;102363.44;;;12.05;100.00
51229;BME280;37304;52.216;6.874;2023-05-31T06:15:58;102357.38;;;12.22;100.00
51229;BME280;37304;52.216;6.874;2023-05-31T06:20:58;102349.56;;;12.36;100.00
51229;BME280;37304;52.216;6.874;2023-05-31T06:25:59;102361.72;;;12.76;100.00
51229;BME280;37304;52.216;6.874;2023-05-31T06:30:59;102352.16;;;12.75;100.00
51229;BME280;37304;52.216;6.874;2023-05-31T06:36:01;102355.53;;;13.19;100.00
51229;BME280;37304;52.216;6.874;2023-05-31T06:41:01;102354.56;;;13.51;100.00
51229;BME280;37304;52.216;6.874;2023-05-31T06:46:01;102360.59;;;13.64;100.00
51229;BME280;37304;52.216;6.874;2023-05-31T06:51:02;102347.38;;;13.93;100.00
51229;BME280;37304;52.216;6.874;2023-05-31T06:56:02;102355.03;;;14.20;100.00
51229;BME280;37304;52.216;6.874;2023-05-31T07:01:03;102358.28;;;14.47;100.00
51229;BME280;37304;52.216;6.874;2023-05-31T07:06:04;102345.84;;;14.77;100.00
51229;BME280;37304;52.216;6.874;2023-05-31T07:11:04;102352.53;;;15.03;100.00
51229;BME280;37304;52.216;6.874;2023-05-31T07:16:05;102343.63;;;15.21;100.00
51229;BME280;37304;52.216;6.874;2023-05-31T07:21:06;102346.84;;;15.43;100.00
51229;BME280;37304;52.216;6.874;2023-05-31T07:26:11;102335.72;;;15.93;100.00
51229;BME280;37304;52.216;6.874;2023-05-31T07:31:13;102338.13;;;16.04;100.00
51229;BME280;37304;52.216;6.874;2023-05-31T07:48:27;102333.97;;;16.94;100.00
51229;BME280;37304;52.216;6.874;2023-05-31T07:53:28;102331.22;;;17.44;100.00
51229;BME280;37304;52.216;6.874;2023-05-31T08:04:52;102324.91;;;18.28;100.00
51229;BME280;37304;52.216;6.874;2023-05-31T08:09:58;102324.50;;;19.10;100.00
51229;BME280;37304;52.216;6.874;2023-05-31T08:26:55;102315.53;;;21.28;100.00
51229;BME280;37304;52.216;6.874;2023-05-31T08:32:22;102305.75;;;21.30;100.00
51229;BME280;37304;52.216;6.874;2023-05-31T08:56:08;102286.84;;;23.45;93.88
51229;BME280;37304;52.216;6.874;2023-05-31T09:13:27;102270.13;;;26.54;79.66
51229;BME280;37304;52.216;6.874;2023-05-31T09:19:33;102272.19;;;25.59;77.80
51229;BME280;37304;52.216;6.874;2023-05-31T09:30:34;102244.94;;;27.29;69.00
51229;BME280;37304;52.216;6.874;2023-05-31T09:35:59;102232.66;;;27.27;67.59
51229;BME280;37304;52.216;6.874;2023-05-31T09:41:32;102231.72;;;27.81;66.02
51229;BME280;37304;52.216;6.874;2023-05-31T09:46:48;102226.59;;;27.78;61.73
51229;BME280;37304;52.216;6.874;2023-05-31T09:52:02;102228.50;;;27.08;63.13
51229;BME280;37304;52.216;6.874;2023-05-31T09:57:28;102238.97;;;27.53;59.72
51229;BME280;37304;52.216;6.874;2023-05-31T10:02:52;102223.53;;;28.86;55.37
51229;BME280;37304;52.216;6.874;2023-05-31T10:08:31;102222.91;;;28.83;53.98
51229;BME280;37304;52.216;6.874;2023-05-31T10:13:52;102210.34;;;27.68;51.62
51229;BME280;37304;52.216;6.874;2023-05-31T10:19:05;102211.00;;;27.04;53.28
51229;BME280;37304;52.216;6.874;2023-05-31T10:24:22;102201.91;;;28.76;50.07
51229;BME280;37304;52.216;6.874;2023-05-31T10:29:43;102195.09;;;29.92;48.51
51229;BME280;37304;52.216;6.874;2023-05-31T10:34:54;102188.34;;;29.04;49.53
51229;BME280;37304;52.216;6.874;2023-05-31T10:57:41;102164.97;;;27.94;49.65
51229;BME280;37304;52.216;6.874;2023-05-31T11:02:53;102156.25;;;27.11;52.00
51229;BME280;37304;52.216;6.874;2023-05-31T11:08:12;102158.13;;;28.29;51.35
51229;BME280;37304;52.216;6.874;2023-05-31T11:19:07;102149.25;;;28.02;52.33
51229;BME280;37304;52.216;6.874;2023-05-31T11:24:08;102131.16;;;30.22;48.10
51229;BME280;37304;52.216;6.874;2023-05-31T11:29:10;102127.13;;;30.05;48.52
51229;BME280;37304;52.216;6.874;2023-05-31T11:34:51;102130.41;;;28.91;47.62
51229;BME280;37304;52.216;6.874;2023-05-31T11:40:00;102118.16;;;29.36;46.54
51229;BME280;37304;52.216;6.874;2023-05-31T11:45:05;102118.69;;;29.41;45.95
51229;BME280;37304;52.216;6.874;2023-05-31T11:50:06;102110.56;;;30.00;45.28
51229;BME280;37304;52.216;6.874;2023-05-31T11:55:08;102110.00;;;30.51;44.62
51229;BME280;37304;52.216;6.874;2023-05-31T12:00:10;102101.13;;;30.40;45.89
51229;BME280;37304;52.216;6.874;2023-05-31T12:05:18;102078.41;;;29.77;46.00
51229;BME280;37304;52.216;6.874;2023-05-31T12:10:30;102076.94;;;29.73;45.69
51229;BME280;37304;52.216;6.874;2023-05-31T12:15:34;102073.44;;;29.84;46.09
51229;BME280;37304;52.216;6.874;2023-05-31T12:20:37;102077.03;;;30.28;44.64
51229;BME280;37304;52.216;6.874;2023-05-31T12:25:48;102069.22;;;29.34;44.61
51229;BME280;37304;52.216;6.874;2023-05-31T12:30:49;102069.41;;;29.55;44.40
51229;BME280;37304;52.216;6.874;2023-05-31T12:35:53;102064.34;;;30.30;43.62
51229;BME280;37304;52.216;6.874;2023-05-31T12:40:54;102049.78;;;29.55;45.39
51229;BME280;37304;52.216;6.874;2023-05-31T12:45:54;102048.31;;;29.62;44.45
51229;BME280;37304;52.216;6.874;2023-05-31T12:50:56;102050.31;;;29.13;44.42
51229;BME280;37304;52.216;6.874;2023-05-31T12:56:00;102043.44;;;28.86;45.50
51229;BME280;37304;52.216;6.874;2023-05-31T13:07:00;102028.09;;;29.24;46.37
51229;BME280;37304;52.216;6.874;2023-05-31T13:12:31;102022.50;;;28.80;47.55
51229;BME280;37304;52.216;6.874;2023-05-31T13:18:00;102026.50;;;29.32;46.29
51229;BME280;37304;52.216;6.874;2023-05-31T13:23:10;102020.13;;;28.02;47.45
51229;BME280;37304;52.216;6.874;2023-05-31T13:28:10;102014.31;;;29.05;47.19
51229;BME280;37304;52.216;6.874;2023-05-31T13:33:16;102018.75;;;28.82;47.60
51229;BME280;37304;52.216;6.874;2023-05-31T13:38:43;102009.47;;;28.51;46.80
51229;BME280;37304;52.216;6.874;2023-05-31T13:43:44;101998.78;;;28.26;46.19
51229;BME280;37304;52.216;6.874;2023-05-31T13:48:45;101992.47;;;28.27;46.67
51229;BME280;37304;52.216;6.874;2023-05-31T13:53:45;101994.22;;;28.75;46.40
51229;BME280;37304;52.216;6.874;2023-05-31T13:58:46;101986.75;;;28.21;47.80
51229;BME280;37304;52.216;6.874;2023-05-31T14:03:49;101985.38;;;28.39;47.42
51229;BME280;37304;52.216;6.874;2023-05-31T14:08:53;101977.22;;;28.16;47.09
51229;BME280;37304;52.216;6.874;2023-05-31T14:14:20;101968.94;;;28.32;46.79
51229;BME280;37304;52.216;6.874;2023-05-31T14:19:21;101964.44;;;27.71;48.40
51229;BME280;37304;52.216;6.874;2023-05-31T14:29:38;101955.59;;;27.58;48.61
51229;BME280;37304;52.216;6.874;2023-05-31T14:34:43;101957.81;;;27.77;48.74
51229;BME280;37304;52.216;6.874;2023-05-31T14:39:46;101946.91;;;27.67;48.27
51229;BME280;37304;52.216;6.874;2023-05-31T14:44:47;101945.25;;;27.14;49.08
51229;BME280;37304;52.216;6.874;2023-05-31T14:49:48;101945.06;;;27.17;49.03
51229;BME280;37304;52.216;6.874;2023-05-31T14:54:51;101933.41;;;27.57;49.13
51229;BME280;37304;52.216;6.874;2023-05-31T14:59:52;101937.81;;;27.07;50.06
51229;BME280;37304;52.216;6.874;2023-05-31T15:04:53;101930.66;;;26.94;52.34
51229;BME280;37304;52.216;6.874;2023-05-31T15:09:53;101937.81;;;27.07;52.37
51229;BME280;37304;52.216;6.874;2023-05-31T15:14:54;101930.28;;;27.38;51.73
51229;BME280;37304;52.216;6.874;2023-05-31T15:20:15;101923.25;;;26.72;53.69
51229;BME280;37304;52.216;6.874;2023-05-31T15:25:15;101920.72;;;26.83;53.62
51229;BME280;37304;52.216;6.874;2023-05-31T15:30:17;101925.44;;;26.93;54.08
51229;BME280;37304;52.216;6.874;2023-05-31T15:35:18;101922.84;;;26.10;54.55
51229;BME280;37304;52.216;6.874;2023-05-31T15:40:18;101926.25;;;25.99;56.31
51229;BME280;37304;52.216;6.874;2023-05-31T15:45:22;101921.22;;;26.22;55.95
51229;BME280;37304;52.216;6.874;2023-05-31T15:50:25;101922.34;;;25.91;57.47
51229;BME280;37304;52.216;6.874;2023-05-31T15:55:58;101927.28;;;25.97;63.00
51229;BME280;37304;52.216;6.874;2023-05-31T16:01:02;101915.69;;;25.27;68.88
51229;BME280;37304;52.216;6.874;2023-05-31T16:06:06;101915.41;;;25.46;70.48
51229;BME280;37304;52.216;6.874;2023-05-31T16:11:06;101910.28;;;24.99;74.42
51229;BME280;37304;52.216;6.874;2023-05-31T16:16:08;101918.78;;;24.76;79.33
51229;BME280;37304;52.216;6.874;2023-05-31T16:21:08;101908.50;;;24.39;83.57
51229;BME280;37304;52.216;6.874;2023-05-31T16:26:24;101912.25;;;23.88;88.26
51229;BME280;37304;52.216;6.874;2023-05-31T16:31:27;101916.50;;;23.91;89.70
51229;BME280;37304;52.216;6.874;2023-05-31T16:36:36;101914.81;;;23.58;90.79
51229;BME280;37304;52.216;6.874;2023-05-31T16:41:39;101905.19;;;23.39;93.52
51229;BME280;37304;52.216;6.874;2023-05-31T16:46:50;101908.97;;;23.17;95.56
51229;BME280;37304;52.216;6.874;2023-05-31T16:51:56;101905.66;;;22.78;96.85
51229;BME280;37304;52.216;6.874;2023-05-31T16:57:08;101903.25;;;22.74;98.13
51229;BME280;37304;52.216;6.874;2023-05-31T17:02:21;101898.09;;;22.71;98.39
51229;BME280;37304;52.216;6.874;2023-05-31T17:07:41;101901.81;;;22.31;97.52
51229;BME280;37304;52.216;6.874;2023-05-31T17:12:42;101897.19;;;22.17;98.49
51229;BME280;37304;52.216;6.874;2023-05-31T17:17:49;101895.94;;;22.07;99.07
51229;BME280;37304;52.216;6.874;2023-05-31T17:23:01;101895.22;;;21.84;100.00
51229;BME280;37304;52.216;6.874;2023-05-31T17:28:17;101891.81;;;21.82;100.00
51229;BME280;37304;52.216;6.874;2023-05-31T17:33:20;101885.09;;;21.56;100.00
51229;BME280;37304;52.216;6.874;2023-05-31T17:38:41;101887.44;;;21.43;100.00
51229;BME280;37304;52.216;6.874;2023-05-31T17:43:44;101889.78;;;21.30;100.00
51229;BME280;37304;52.216;6.874;2023-05-31T17:48:52;101886.81;;;21.17;100.00
51229;BME280;37304;52.216;6.874;2023-05-31T17:53:58;101883.38;;;20.95;100.00
51229;BME280;37304;52.216;6.874;2023-05-31T17:59:12;101884.75;;;20.84;100.00
51229;BME280;37304;52.216;6.874;2023-05-31T18:04:50;101878.41;;;20.67;100.00
51229;BME280;37304;52.216;6.874;2023-05-31T18:10:29;101885.56;;;20.63;100.00
51229;BME280;37304;52.216;6.874;2023-05-31T18:15:52;101889.06;;;20.43;100.00
51229;BME280;37304;52.216;6.874;2023-05-31T18:20:59;101893.81;;;20.13;100.00
51229;BME280;37304;52.216;6.874;2023-05-31T18:37:48;101895.91;;;19.34;100.00
51229;BME280;37304;52.216;6.874;2023-05-31T18:43:01;101906.97;;;19.19;100.00
51229;BME280;37304;52.216;6.874;2023-05-31T18:48:25;101908.88;;;18.88;100.00
51229;BME280;37304;52.216;6.874;2023-05-31T18:54:00;101916.00;;;18.59;100.00
51229;BME280;37304;52.216;6.874;2023-05-31T18:59:22;101912.97;;;18.45;100.00
51229;BME280;37304;52.216;6.874;2023-05-31T19:04:38;101913.63;;;18.25;100.00
51229;BME280;37304;52.216;6.874;2023-05-31T19:09:52;101923.16;;;17.99;100.00
51229;BME280;37304;52.216;6.874;2023-05-31T19:21:11;101924.25;;;17.30;100.00
51229;BME280;37304;52.216;6.874;2023-05-31T19:26:35;101928.94;;;17.18;100.00
51229;BME280;37304;52.216;6.874;2023-05-31T19:32:32;101935.94;;;16.85;100.00
51229;BME280;37304;52.216;6.874;2023-05-31T19:38:08;101937.63;;;16.51;100.00
51229;BME280;37304;52.216;6.874;2023-05-31T19:43:10;101944.09;;;16.36;100.00
51229;BME280;37304;52.216;6.874;2023-05-31T19:48:52;101949.78;;;16.16;100.00
51229;BME280;37304;52.216;6.874;2023-05-31T20:05:21;101963.53;;;15.39;100.00
51229;BME280;37304;52.216;6.874;2023-05-31T20:10:57;101974.53;;;15.11;100.00
51229;BME280;37304;52.216;6.874;2023-05-31T20:16:31;101981.94;;;14.84;100.00
51229;BME280;37304;52.216;6.874;2023-05-31T20:21:44;101984.84;;;14.66;100.00
51229;BME280;37304;52.216;6.874;2023-05-31T20:32:49;101994.84;;;14.39;100.00
51229;BME280;37304;52.216;6.874;2023-05-31T20:37:53;101993.28;;;14.22;100.00
51229;BME280;37304;52.216;6.874;2023-05-31T20:43:19;101997.94;;;14.02;100.00
51229;BME280;37304;52.216;6.874;2023-05-31T20:48:27;101996.34;;;13.88;100.00
51229;BME280;37304;52.216;6.874;2023-05-31T20:53:38;102008.59;;;13.83;100.00
51229;BME280;37304;52.216;6.874;2023-05-31T20:59:10;102007.88;;;13.72;100.00
51229;BME280;37304;52.216;6.874;2023-05-31T21:04:14;102008.09;;;13.48;100.00
51229;BME280;37304;52.216;6.874;2023-05-31T21:09:23;102009.91;;;13.40;100.00
51229;BME280;37304;52.216;6.874;2023-05-31T21:14:29;102006.59;;;13.19;100.00
51229;BME280;37304;52.216;6.874;2023-05-31T21:19:40;102011.16;;;12.91;100.00
51229;BME280;37304;52.216;6.874;2023-05-31T21:25:05;102012.97;;;12.82;100.00
51229;BME280;37304;52.216;6.874;2023-05-31T21:30:18;102022.63;;;12.71;100.00
51229;BME280;37304;52.216;6.874;2023-05-31T21:35:21;102021.84;;;12.57;100.00
51229;BME280;37304;52.216;6.874;2023-05-31T21:40:43;102025.38;;;12.48;100.00
51229;BME280;37304;52.216;6.874;2023-05-31T21:45:56;102028.88;;;12.41;100.00
51229;BME280;37304;52.216;6.874;2023-05-31T21:51:07;102037.63;;;12.26;100.00
51229;BME280;37304;52.216;6.874;2023-05-31T21:56:19;102033.31;;;12.26;100.00
51229;BME280;37304;52.216;6.874;2023-05-31T22:01:20;102042.91;;;12.10;100.00
51229;BME280;37304;52.216;6.874;2023-05-31T22:06:48;102040.34;;;12.01;100.00
51229;BME280;37304;52.216;6.874;2023-05-31T22:17:43;102050.81;;;11.57;100.00
51229;BME280;37304;52.216;6.874;2023-05-31T22:23:13;102054.31;;;11.41;100.00
51229;BME280;37304;52.216;6.874;2023-05-31T22:28:24;102057.78;;;11.36;100.00
51229;BME280;37304;52.216;6.874;2023-05-31T22:33:42;102062.13;;;11.24;100.00
51229;BME280;37304;52.216;6.874;2023-05-31T22:38:53;102056.06;;;10.95;100.00
51229;BME280;37304;52.216;6.874;2023-05-31T22:43:58;102064.72;;;11.06;100.00
51229;BME280;37304;52.216;6.874;2023-05-31T22:49:05;102064.69;;;10.85;100.00
51229;BME280;37304;52.216;6.874;2023-05-31T22:59:44;102062.06;;;10.71;100.00
51229;BME280;37304;52.216;6.874;2023-05-31T23:04:47;102061.16;;;10.55;100.00
51229;BME280;37304;52.216;6.874;2023-05-31T23:09:57;102067.16;;;10.40;100.00
51229;BME280;37304;52.216;6.874;2023-05-31T23:15:03;102070.59;;;10.39;100.00
51229;BME280;37304;52.216;6.874;2023-05-31T23:20:17;102082.75;;;10.43;100.00
51229;BME280;37304;52.216;6.874;2023-05-31T23:25:43;102085.25;;;10.26;100.00
51229;BME280;37304;52.216;6.874;2023-05-31T23:30:49;102088.75;;;10.32;100.00
51229;BME280;37304;52.216;6.874;2023-05-31T23:36:04;102086.16;;;10.32;100.00
51229;BME280;37304;52.216;6.874;2023-05-31T23:41:25;102085.31;;;10.38;100.00
51229;BME280;37304;52.216;6.874;2023-05-31T23:46:35;102079.19;;;10.25;100.00
51229;BME280;37304;52.216;6.874;2023-05-31T23:51:41;102074.81;;;10.15;100.00
51229;BME280;37304;52.216;6.874;2023-05-31T23:56:41;102074.88;;;10.24;100.00
